createdAt,value
2022-09-28T09:36:52.563Z,0.60
2022-09-28T09:39:36.552Z,0.50
2022-09-28T09:42:26.585Z,0.47
2022-09-28T09:45:17.269Z,0.45
2022-09-28T09:47:52.348Z,0.50
2022-09-28T09:50:26.713Z,0.45
2022-09-28T09:53:00.295Z,0.50
2022-09-28T09:55:35.849Z,0.50
2022-09-28T09:58:18.956Z,0.57
2022-09-28T10:00:52.028Z,0.65
2022-09-28T10:03:32.610Z,0.50
2022-09-28T10:06:05.512Z,0.55
2022-09-28T10:08:43.296Z,0.50
2022-09-28T10:11:16.581Z,0.65
2022-09-28T10:13:47.044Z,0.50
2022-09-28T10:16:17.572Z,0.50
2022-09-28T10:18:47.728Z,1.38
2022-09-28T10:21:18.264Z,0.70
2022-09-28T10:23:48.938Z,0.80
2022-09-28T10:26:25.261Z,1.33
2022-09-28T10:28:58.315Z,0.93
2022-09-28T10:31:37.656Z,0.90
2022-09-28T10:34:09.581Z,0.70
2022-09-28T11:20:27.317Z,0.50
2022-09-28T11:23:02.511Z,0.57
2022-09-28T11:25:33.653Z,0.40
2022-09-28T11:28:05.968Z,0.40
2022-09-28T11:30:52.770Z,0.50
2022-09-28T11:33:42.948Z,0.82
2022-09-28T11:36:21.021Z,0.50
2022-09-28T11:39:06.076Z,0.60
2022-09-28T11:41:36.243Z,0.50
2022-09-28T11:44:09.200Z,0.40
2022-09-28T11:46:51.369Z,0.60
2022-09-28T11:49:27.400Z,0.50
2022-09-28T11:51:59.985Z,0.50
2022-09-28T11:54:34.453Z,0.40
2022-09-28T11:57:08.355Z,0.50
2022-09-28T12:00:04.382Z,0.60
2022-09-28T12:02:39.654Z,0.60
2022-09-28T12:05:09.646Z,0.50
2022-09-28T12:07:57.685Z,0.50
2022-09-28T12:10:49.633Z,0.63
2022-09-28T12:13:22.177Z,0.60
2022-09-28T14:11:44.936Z,0.65
2022-09-28T14:14:16.956Z,0.68
2022-09-28T14:16:47.105Z,0.80
2022-09-28T14:19:17.253Z,0.60
2022-09-28T14:22:05.624Z,0.70
2022-09-28T14:24:47.791Z,0.70
2022-09-28T14:27:20.711Z,0.68
2022-09-28T14:29:52.551Z,0.80
2022-09-28T14:32:27.183Z,1.00
2022-09-28T14:35:03.750Z,0.85
2022-09-28T14:37:53.893Z,0.63
2022-09-28T14:40:54.287Z,0.70
2022-09-28T14:43:30.182Z,0.80
2022-09-28T14:46:22.614Z,1.00
2022-09-28T14:48:56.952Z,1.02
2022-09-28T14:51:34.024Z,1.30
2022-09-28T14:54:14.297Z,1.30
2022-09-28T14:56:53.343Z,1.20
2022-09-28T14:59:26.153Z,1.00
2022-09-28T15:02:03.405Z,0.90
2022-09-28T15:04:33.801Z,0.50
2022-09-28T15:07:03.787Z,0.60
2022-09-28T15:09:38.867Z,0.45
2022-09-28T18:04:50.207Z,0.30
2022-09-28T18:07:16.338Z,0.30
2022-09-28T18:09:47.330Z,0.30
2022-09-28T18:12:17.217Z,0.20
2022-09-28T18:14:49.223Z,0.30
2022-09-28T18:17:19.057Z,0.28
2022-09-28T18:19:49.100Z,0.30
2022-09-28T18:22:18.991Z,0.20
2022-09-28T18:24:48.983Z,0.30
2022-09-28T18:27:19.877Z,0.30
2022-09-28T18:29:49.732Z,0.30
2022-09-28T18:32:20.161Z,0.30
2022-09-28T18:34:50.160Z,0.30
2022-09-28T18:37:20.093Z,0.30
2022-09-28T18:39:50.088Z,0.30
2022-09-28T18:42:21.251Z,0.30
2022-09-28T18:44:52.261Z,0.28
2022-09-28T18:47:22.162Z,0.30
2022-09-28T18:49:53.094Z,0.30
2022-09-28T18:52:22.966Z,0.20
2022-09-28T18:54:53.272Z,0.30
2022-09-28T18:57:24.557Z,0.20
2022-09-28T18:59:54.460Z,0.30
2022-09-28T19:02:24.374Z,0.30
2022-09-28T20:02:16.503Z,0.30
2022-09-28T20:04:46.574Z,0.30
2022-09-28T20:07:16.852Z,0.35
2022-09-28T20:09:46.776Z,0.30
2022-09-28T20:12:16.803Z,0.30
2022-09-28T20:14:46.725Z,0.30
2022-09-28T20:17:16.585Z,0.30
2022-09-28T20:19:47.686Z,0.30
2022-09-28T20:22:18.511Z,0.30
2022-09-28T20:24:48.367Z,0.30
2022-09-28T20:27:18.188Z,0.30
2022-09-28T20:29:48.009Z,0.30
2022-09-28T20:32:17.888Z,0.30
2022-09-28T20:34:47.721Z,0.30
2022-09-28T20:37:19.077Z,0.30
2022-09-28T20:39:48.994Z,0.30
2022-09-28T20:42:18.876Z,0.30
2022-09-28T20:44:50.003Z,0.30
2022-09-28T20:47:21.002Z,0.30
2022-09-28T20:49:50.826Z,0.30
2022-09-28T20:52:20.956Z,0.22
2022-09-28T20:54:50.784Z,0.30
2022-09-28T20:57:21.699Z,0.30
2022-09-28T20:59:54.742Z,0.30
